首页
METAR-TAF:

METAR-TAF

机场 :

滑鐵盧區國際機場

滑铁卢, 安大略省, 加拿大

纬度: 43-28N, 经度: 080-23W, 海拔: 317米

当前天气观测

该预报发布于33分钟前的17:00 UTC
风速2节,风向多变
温度 -3°C
湿度 58%
气压 1025 hPa
能見度: 14.5公里
散云层高于16000英尺
散云层高于18000英尺

METAR: CYKF 171700Z AUTO VRB02KT 9SM SCT160 SCT180 M03/M10 A3028 RMK ICG SLP273

时间: 12:33 (17:33 UTC)

预报

该预报发布于3小时和55分钟前的13:38 UTC
预报有效从17日的 14点(UTC)到 18日的 02点(UTC)
风速5节,风向东转东北
能見度: 10公里
少量云层高于3000英尺
从 17日的 1800点(UTC)
风速7节,风向东转东南
能見度: 10公里
少量云层高于3000英尺
散云层高于20000英尺
从 17日的 2300点(UTC)
风速10节,风向
能見度: 10公里
多云层高于11000英尺
阴天层高于22000英尺

TAF: CYKF 171338Z 1714/1802 06005KT P6SM FEW030 FM171800 11007KT P6SM FEW030 SCT200 FM172300 09010KT P6SM BKN110 OVC220 RMK FCST BASED ON AUTO OBS. NXT FCST BY 172000Z

超过4000个机场的气象观测和天气预报(METAR&TAF报告)。

可查询的气象台以黄色和红色小点在地图上表示。

将鼠标移到小点上方,可查看气象台名称。

然后点击查看天气观测和预报。

如需切换地图:点击带黑十字的绿色按钮放大地图;点击带横线的绿色按钮缩小地图;或者点击绿色箭头查看邻近地区的地图。


METAR-TAF: